createdAt,value
2017-08-17T00:00:01.543Z,0
2017-08-17T00:01:01.555Z,0
2017-08-17T00:02:00.887Z,0
2017-08-17T00:03:01.208Z,0
2017-08-17T00:04:01.206Z,0
2017-08-17T00:05:01.201Z,0
2017-08-17T00:06:00.890Z,0
2017-08-17T00:07:01.528Z,0
2017-08-17T00:08:00.551Z,0
2017-08-17T00:09:01.180Z,0
2017-08-17T00:10:01.523Z,0
2017-08-17T00:11:01.183Z,0
2017-08-17T00:12:01.490Z,0
2017-08-17T00:13:01.166Z,0
2017-08-17T00:14:01.482Z,0
2017-08-17T00:15:01.477Z,0
2017-08-17T00:16:00.848Z,0
2017-08-17T00:17:01.173Z,0
2017-08-17T00:18:00.833Z,0
2017-08-17T00:19:01.154Z,0
2017-08-17T00:20:01.130Z,0
2017-08-17T00:21:01.475Z,0
2017-08-17T00:22:01.473Z,0
2017-08-17T00:23:01.443Z,0
2017-08-17T00:24:01.137Z,0
2017-08-17T00:25:01.151Z,0
2017-08-17T00:26:01.112Z,0
2017-08-17T00:27:01.101Z,0
2017-08-17T00:28:01.096Z,0
2017-08-17T00:29:01.114Z,0
2017-08-17T00:30:01.094Z,0
2017-08-17T00:31:01.408Z,0
2017-08-17T00:32:01.415Z,0
2017-08-17T00:33:00.755Z,0
2017-08-17T00:34:01.398Z,0
2017-08-17T00:35:01.385Z,0
2017-08-17T00:36:01.384Z,0
2017-08-17T00:37:01.084Z,0
2017-08-17T00:38:01.388Z,0
2017-08-17T00:39:01.372Z,0
2017-08-17T00:40:00.724Z,0
2017-08-17T00:41:01.380Z,0
2017-08-17T00:42:01.360Z,0
2017-08-17T00:43:01.035Z,0
2017-08-17T00:44:01.360Z,0
2017-08-17T00:45:01.030Z,0
2017-08-17T00:46:01.349Z,0
2017-08-17T00:47:01.365Z,0
2017-08-17T00:48:01.344Z,0
2017-08-17T00:49:01.008Z,0
2017-08-17T00:50:01.003Z,0
2017-08-17T00:51:00.995Z,0
2017-08-17T00:52:01.321Z,0
2017-08-17T00:53:01.301Z,0
2017-08-17T00:54:00.981Z,0
2017-08-17T00:55:00.996Z,0
2017-08-17T00:56:00.976Z,0
2017-08-17T00:57:00.971Z,0
2017-08-17T00:58:01.284Z,0
2017-08-17T00:59:00.959Z,0
2017-08-17T01:00:00.627Z,0
2017-08-17T01:01:01.267Z,0
2017-08-17T01:02:01.273Z,0
2017-08-17T01:03:00.945Z,0
2017-08-17T01:04:01.289Z,0
2017-08-17T01:05:00.925Z,0
2017-08-17T01:06:01.723Z,0
2017-08-17T01:07:00.961Z,0
2017-08-17T01:08:01.266Z,0
2017-08-17T01:09:00.931Z,0
2017-08-17T01:10:01.239Z,0
2017-08-17T01:11:01.240Z,0
2017-08-17T01:12:00.889Z,0
2017-08-17T01:13:01.209Z,0
2017-08-17T01:14:01.235Z,0
2017-08-17T01:15:00.565Z,0
2017-08-17T01:16:01.192Z,0
2017-08-17T01:17:00.872Z,0
2017-08-17T01:18:00.871Z,0
2017-08-17T01:19:00.871Z,0
2017-08-17T01:20:00.868Z,0
2017-08-17T01:21:01.194Z,0
2017-08-17T01:22:01.195Z,0
2017-08-17T01:23:00.848Z,0
2017-08-17T01:24:01.170Z,0
2017-08-17T01:25:01.163Z,0
2017-08-17T01:26:00.518Z,0
2017-08-17T01:27:00.837Z,0
2017-08-17T01:28:00.835Z,0
2017-08-17T01:29:00.833Z,0
2017-08-17T01:30:01.124Z,0
2017-08-17T01:31:00.802Z,0
2017-08-17T01:32:01.120Z,0
2017-08-17T01:33:01.113Z,0
2017-08-17T01:34:00.802Z,0
2017-08-17T01:35:00.464Z,0
2017-08-17T01:36:00.780Z,0
2017-08-17T01:37:01.102Z,0
2017-08-17T01:38:01.094Z,0
2017-08-17T01:39:00.780Z,0
2017-08-17T01:40:01.078Z,0
2017-08-17T01:41:00.753Z,0
2017-08-17T01:42:00.765Z,0
2017-08-17T01:43:01.070Z,0
2017-08-17T01:44:00.754Z,0
2017-08-17T01:45:01.081Z,0
2017-08-17T01:46:01.063Z,0
2017-08-17T01:47:00.414Z,0
2017-08-17T01:48:01.047Z,0
2017-08-17T01:49:01.058Z,0
2017-08-17T01:50:01.048Z,0
2017-08-17T01:51:01.024Z,0
2017-08-17T01:52:01.045Z,0
2017-08-17T01:53:00.373Z,0
2017-08-17T01:54:00.702Z,0
2017-08-17T01:55:01.037Z,0
2017-08-17T01:56:00.701Z,0
2017-08-17T01:57:01.007Z,0
2017-08-17T01:58:00.676Z,0
2017-08-17T01:59:00.744Z,0
2017-08-17T02:00:01.020Z,0
2017-08-17T02:01:00.979Z,0
2017-08-17T02:02:00.992Z,0
2017-08-17T02:03:00.713Z,0
2017-08-17T02:04:00.963Z,0
2017-08-17T02:05:00.986Z,0
2017-08-17T02:06:00.627Z,0
2017-08-17T02:07:00.634Z,0
2017-08-17T02:08:00.941Z,0
2017-08-17T02:09:00.942Z,0
2017-08-17T02:10:00.617Z,0
2017-08-17T02:11:00.949Z,0
2017-08-17T02:12:00.964Z,0
2017-08-17T02:13:00.603Z,0
2017-08-17T02:14:00.588Z,0
2017-08-17T02:15:00.929Z,0
2017-08-17T02:16:00.623Z,0
2017-08-17T02:17:00.917Z,0
2017-08-17T02:18:00.906Z,0
2017-08-17T02:19:00.585Z,0
2017-08-17T02:20:00.889Z,0
2017-08-17T02:21:00.901Z,0
2017-08-17T02:22:00.592Z,0
2017-08-17T02:23:00.868Z,0
2017-08-17T02:24:00.869Z,0
2017-08-17T02:25:00.533Z,0
2017-08-17T02:26:00.560Z,0
2017-08-17T02:27:00.874Z,0
2017-08-17T02:28:00.844Z,0
2017-08-17T02:29:00.844Z,0
2017-08-17T02:30:00.856Z,0
2017-08-17T02:31:00.851Z,0
2017-08-17T02:32:00.844Z,0
2017-08-17T02:33:00.822Z,0
2017-08-17T02:34:00.511Z,0
2017-08-17T02:35:00.165Z,0
2017-08-17T02:36:00.804Z,0
2017-08-17T02:37:00.797Z,0
2017-08-17T02:38:00.819Z,0
2017-08-17T02:39:00.784Z,0
2017-08-17T02:40:00.502Z,0
2017-08-17T02:41:00.805Z,0
2017-08-17T02:42:00.788Z,0
2017-08-17T02:43:00.467Z,0
2017-08-17T02:44:00.773Z,0
2017-08-17T02:45:00.439Z,0
2017-08-17T02:46:00.435Z,0
2017-08-17T02:47:00.450Z,0
2017-08-17T02:48:00.776Z,0
2017-08-17T02:49:00.422Z,0
2017-08-17T02:50:00.766Z,0
2017-08-17T02:51:00.087Z,0
2017-08-17T02:52:00.743Z,0
2017-08-17T02:53:00.400Z,0
2017-08-17T02:54:00.079Z,0
2017-08-17T02:55:00.422Z,0
2017-08-17T02:56:00.398Z,0
2017-08-17T02:57:00.704Z,0
2017-08-17T02:58:00.380Z,0
2017-08-17T02:59:00.715Z,0
2017-08-17T03:00:00.058Z,0
2017-08-17T03:01:00.676Z,0
2017-08-17T03:02:00.361Z,0
2017-08-17T03:03:00.031Z,0
2017-08-17T03:04:00.342Z,0
2017-08-17T03:05:00.706Z,0
2017-08-17T03:06:00.358Z,0
2017-08-17T03:07:00.378Z,0
2017-08-17T03:08:00.316Z,0
2017-08-17T03:09:00.326Z,0
2017-08-17T03:10:00.326Z,0
2017-08-17T03:11:00.305Z,0
2017-08-17T03:12:00.637Z,0
2017-08-17T03:13:00.615Z,0
2017-08-17T03:14:00.617Z,0
2017-08-17T03:15:00.629Z,0
2017-08-17T03:16:00.301Z,0
2017-08-17T03:16:59.638Z,0
2017-08-17T03:18:00.283Z,0
2017-08-17T03:19:00.258Z,0
2017-08-17T03:20:00.580Z,0
2017-08-17T03:21:00.588Z,0
2017-08-17T03:22:00.622Z,0
2017-08-17T03:23:00.253Z,0
2017-08-17T03:24:00.582Z,0
2017-08-17T03:24:59.912Z,0
2017-08-17T03:26:00.268Z,0
2017-08-17T03:27:00.221Z,0
2017-08-17T03:28:00.593Z,4
2017-08-17T03:29:00.533Z,4
2017-08-17T03:30:00.223Z,4
2017-08-17T03:31:00.568Z,0
2017-08-17T03:32:00.525Z,4
2017-08-17T03:33:00.525Z,4
2017-08-17T03:34:00.534Z,4
2017-08-17T03:35:00.541Z,4
2017-08-17T03:36:00.535Z,8
2017-08-17T03:37:00.513Z,8
2017-08-17T03:38:00.505Z,8
2017-08-17T03:39:00.505Z,8
2017-08-17T03:39:59.834Z,12
2017-08-17T03:41:00.474Z,12
2017-08-17T03:42:00.030Z,16
2017-08-17T03:43:00.456Z,16
2017-08-17T03:44:00.142Z,24
2017-08-17T03:45:00.132Z,24
2017-08-17T03:45:59.833Z,28
2017-08-17T03:47:00.444Z,32
2017-08-17T03:48:00.117Z,40
2017-08-17T03:49:00.448Z,44
2017-08-17T03:50:00.425Z,52
2017-08-17T03:51:00.444Z,56
2017-08-17T03:52:00.415Z,60
2017-08-17T03:53:00.438Z,72
2017-08-17T03:54:00.081Z,76
2017-08-17T03:55:00.087Z,88
2017-08-17T03:56:00.411Z,96
2017-08-17T03:57:00.079Z,108
2017-08-17T03:58:00.384Z,124
2017-08-17T03:59:00.389Z,136
2017-08-17T04:00:00.397Z,148
2017-08-17T04:01:00.089Z,164
2017-08-17T04:02:00.052Z,184
2017-08-17T04:03:00.073Z,200
2017-08-17T04:04:00.029Z,220
2017-08-17T04:05:00.051Z,236
2017-08-17T04:06:00.024Z,260
2017-08-17T04:07:00.017Z,284
2017-08-17T04:08:00.034Z,312
2017-08-17T04:09:00.322Z,336
2017-08-17T04:10:00.320Z,364
2017-08-17T04:11:00.029Z,392
2017-08-17T04:12:00.000Z,424
2017-08-17T04:12:59.679Z,460
2017-08-17T04:13:59.658Z,492
2017-08-17T04:14:59.972Z,528
2017-08-17T04:16:00.005Z,568
2017-08-17T04:17:00.322Z,604
2017-08-17T04:18:00.322Z,648
2017-08-17T04:19:00.275Z,692
2017-08-17T04:19:59.641Z,740
2017-08-17T04:21:00.261Z,788
2017-08-17T04:21:59.624Z,836
2017-08-17T04:22:59.940Z,896
2017-08-17T04:23:59.918Z,952
2017-08-17T04:24:59.922Z,1008
2017-08-17T04:25:59.622Z,1068
2017-08-17T04:26:59.908Z,1132
2017-08-17T04:27:59.305Z,1204
2017-08-17T04:28:59.904Z,1264
2017-08-17T04:30:00.218Z,1320
2017-08-17T04:30:59.905Z,1372
2017-08-17T04:32:00.201Z,1424
2017-08-17T04:32:59.895Z,1464
2017-08-17T04:33:59.558Z,1508
2017-08-17T04:34:59.866Z,1552
2017-08-17T04:35:59.864Z,1604
2017-08-17T04:37:00.187Z,1652
2017-08-17T04:37:59.579Z,1700
2017-08-17T04:38:59.871Z,1744
2017-08-17T04:40:00.172Z,1796
2017-08-17T04:40:59.515Z,1844
2017-08-17T04:41:59.851Z,1888
2017-08-17T04:42:59.506Z,1928
2017-08-17T04:43:59.501Z,1968
2017-08-17T04:44:59.826Z,2000
2017-08-17T04:45:59.828Z,2032
2017-08-17T04:46:59.827Z,2068
2017-08-17T04:47:59.529Z,2108
2017-08-17T04:49:00.120Z,2160
2017-08-17T04:49:59.797Z,2204
2017-08-17T04:50:59.809Z,2240
2017-08-17T04:51:59.782Z,2264
2017-08-17T04:53:00.104Z,2284
2017-08-17T04:54:00.095Z,2312
2017-08-17T04:55:00.087Z,2340
2017-08-17T04:55:59.482Z,2360
2017-08-17T04:57:00.090Z,2368
2017-08-17T04:58:00.072Z,2376
2017-08-17T04:59:00.095Z,2384
2017-08-17T04:59:59.759Z,2408
2017-08-17T05:00:59.747Z,2432
2017-08-17T05:01:59.434Z,2440
2017-08-17T05:03:00.085Z,2436
2017-08-17T05:04:00.043Z,2420
2017-08-17T05:04:59.395Z,2416
2017-08-17T05:06:00.054Z,2408
2017-08-17T05:06:59.733Z,2420
2017-08-17T05:07:59.381Z,2436
2017-08-17T05:09:00.027Z,2464
2017-08-17T05:10:00.046Z,2496
2017-08-17T05:10:59.403Z,2544
2017-08-17T05:12:00.006Z,2616
2017-08-17T05:12:59.703Z,2700
2017-08-17T05:13:59.361Z,2796
2017-08-17T05:15:00.013Z,2940
2017-08-17T05:15:59.026Z,3172
2017-08-17T05:16:59.702Z,3524
2017-08-17T05:17:59.978Z,3956
2017-08-17T05:18:59.330Z,4384
2017-08-17T05:19:59.999Z,4812
2017-08-17T05:20:59.644Z,5240
2017-08-17T05:22:00.008Z,5648
2017-08-17T05:22:59.961Z,6024
2017-08-17T05:23:59.957Z,6436
2017-08-17T05:24:59.638Z,6832
2017-08-17T05:25:59.952Z,7224
2017-08-17T05:26:59.615Z,7568
2017-08-17T05:27:59.637Z,7588
2017-08-17T05:28:59.958Z,7524
2017-08-17T05:29:59.941Z,7556
2017-08-17T05:30:59.632Z,7528
2017-08-17T05:31:59.281Z,7484
2017-08-17T05:32:59.603Z,7464
2017-08-17T05:33:59.925Z,7432
2017-08-17T05:34:58.983Z,7324
2017-08-17T05:35:59.584Z,7156
2017-08-17T05:36:59.905Z,6992
2017-08-17T05:37:59.919Z,6804
2017-08-17T05:38:59.570Z,6592
2017-08-17T05:39:58.933Z,6372
2017-08-17T05:40:59.896Z,6160
2017-08-17T05:41:59.566Z,6068
2017-08-17T05:42:59.574Z,6108
2017-08-17T05:43:59.562Z,6252
2017-08-17T05:44:59.896Z,6348
2017-08-17T05:45:59.237Z,6344
2017-08-17T05:46:59.875Z,6192
2017-08-17T05:47:59.895Z,6060
2017-08-17T05:48:59.568Z,5996
2017-08-17T05:49:59.553Z,5992
2017-08-17T05:50:59.919Z,6000
2017-08-17T05:51:59.555Z,6048
2017-08-17T05:52:59.533Z,6032
2017-08-17T05:53:59.218Z,6076
2017-08-17T05:54:59.533Z,6124
2017-08-17T05:55:59.886Z,6120
2017-08-17T05:56:59.537Z,6088
2017-08-17T05:57:59.526Z,6060
2017-08-17T05:58:59.560Z,6080
2017-08-17T05:59:58.877Z,6112
2017-08-17T06:00:59.867Z,6152
2017-08-17T06:01:59.556Z,5992
2017-08-17T06:02:59.530Z,5816
2017-08-17T06:03:59.232Z,5656
2017-08-17T06:04:59.512Z,5676
2017-08-17T06:05:59.852Z,5708
2017-08-17T06:06:59.510Z,5756
2017-08-17T06:07:59.852Z,5812
2017-08-17T06:08:59.859Z,5924
2017-08-17T06:09:59.879Z,5972
2017-08-17T06:10:59.832Z,6012
2017-08-17T06:11:59.500Z,6068
2017-08-17T06:12:59.174Z,5916
2017-08-17T06:13:59.493Z,5644
2017-08-17T06:14:59.505Z,5572
2017-08-17T06:15:59.525Z,5456
2017-08-17T06:16:59.169Z,5156
2017-08-17T06:17:59.501Z,4880
2017-08-17T06:18:59.803Z,4760
2017-08-17T06:19:59.477Z,4736
2017-08-17T06:20:59.160Z,4728
2017-08-17T06:21:59.504Z,4708
2017-08-17T06:22:59.473Z,4536
2017-08-17T06:23:59.476Z,4244
2017-08-17T06:24:59.798Z,3964
2017-08-17T06:25:59.493Z,3836
2017-08-17T06:26:59.154Z,3808
2017-08-17T06:27:59.477Z,3852
2017-08-17T06:28:59.157Z,3996
2017-08-17T06:29:59.483Z,4180
2017-08-17T06:30:59.506Z,4352
2017-08-17T06:31:59.485Z,4428
2017-08-17T06:32:59.141Z,4356
2017-08-17T06:33:59.802Z,4188
2017-08-17T06:34:59.457Z,3956
2017-08-17T06:35:59.174Z,3808
2017-08-17T06:36:59.805Z,3764
2017-08-17T06:37:59.204Z,3696
2017-08-17T06:38:59.769Z,3516
2017-08-17T06:39:59.125Z,3348
2017-08-17T06:40:59.144Z,3280
2017-08-17T06:41:59.136Z,3396
2017-08-17T06:42:59.825Z,3688
2017-08-17T06:43:59.447Z,3908
2017-08-17T06:44:59.448Z,3956
2017-08-17T06:45:59.123Z,3716
2017-08-17T06:46:59.757Z,3408
2017-08-17T06:47:59.444Z,3116
2017-08-17T06:48:59.434Z,2884
2017-08-17T06:49:59.435Z,2708
2017-08-17T06:50:59.745Z,2528
2017-08-17T06:51:59.767Z,2368
2017-08-17T06:52:59.431Z,2272
2017-08-17T06:53:59.419Z,2300
2017-08-17T06:54:59.764Z,2448
2017-08-17T06:55:59.424Z,2596
2017-08-17T06:56:59.416Z,2692
2017-08-17T06:57:59.754Z,2820
2017-08-17T06:58:58.796Z,2992
2017-08-17T06:59:59.740Z,3140
2017-08-17T07:00:59.087Z,3164
2017-08-17T07:01:59.407Z,3072
2017-08-17T07:02:59.413Z,2996
2017-08-17T07:03:59.419Z,2888
2017-08-17T07:04:59.397Z,2652
2017-08-17T07:05:59.087Z,2428
2017-08-17T07:06:59.389Z,2288
2017-08-17T07:07:59.716Z,2160
2017-08-17T07:08:59.723Z,2128
2017-08-17T07:09:59.709Z,2196
2017-08-17T07:10:59.717Z,2260
2017-08-17T07:11:59.740Z,2248
2017-08-17T07:12:59.399Z,2224
2017-08-17T07:13:59.708Z,2192
2017-08-17T07:14:59.384Z,2180
2017-08-17T07:15:59.411Z,2184
2017-08-17T07:16:59.058Z,2228
2017-08-17T07:17:59.729Z,2328
2017-08-17T07:18:59.382Z,2424
2017-08-17T07:19:59.687Z,2496
2017-08-17T07:20:59.374Z,2560
2017-08-17T07:21:59.680Z,2588
2017-08-17T07:22:59.385Z,2572
2017-08-17T07:23:59.687Z,2536
2017-08-17T07:24:59.356Z,2468
2017-08-17T07:25:59.708Z,2352
2017-08-17T07:26:59.686Z,2228
2017-08-17T07:28:00.161Z,2112
2017-08-17T07:28:59.674Z,2072
2017-08-17T07:29:59.675Z,2244
2017-08-17T07:30:59.348Z,2704
2017-08-17T07:31:59.659Z,3508
2017-08-17T07:32:59.360Z,4440
2017-08-17T07:33:59.331Z,5236
2017-08-17T07:34:59.668Z,5700
2017-08-17T07:35:59.328Z,5976
2017-08-17T07:36:59.371Z,6060
2017-08-17T07:37:59.341Z,5752
2017-08-17T07:38:59.658Z,5392
2017-08-17T07:39:59.335Z,5052
2017-08-17T07:40:59.314Z,4780
2017-08-17T07:41:59.317Z,4588
2017-08-17T07:42:59.335Z,4420
2017-08-17T07:43:59.631Z,4148
2017-08-17T07:44:59.624Z,3904
2017-08-17T07:45:59.301Z,3784
2017-08-17T07:46:59.317Z,3720
2017-08-17T07:47:59.298Z,3644
2017-08-17T07:48:59.614Z,3488
2017-08-17T07:49:59.300Z,3632
2017-08-17T07:50:59.315Z,3812
2017-08-17T07:51:59.612Z,3828
2017-08-17T07:52:59.618Z,3796
2017-08-17T07:53:59.288Z,3548
2017-08-17T07:54:59.623Z,3268
2017-08-17T07:55:59.291Z,3220
2017-08-17T07:56:59.608Z,3552
2017-08-17T07:57:59.277Z,4012
2017-08-17T07:58:59.594Z,4004
2017-08-17T07:59:59.287Z,3732
2017-08-17T08:00:59.288Z,3564
2017-08-17T08:01:59.270Z,3468
2017-08-17T08:02:59.589Z,3412
2017-08-17T08:03:59.278Z,3336
2017-08-17T08:04:59.588Z,3260
2017-08-17T08:05:59.585Z,3292
2017-08-17T08:06:59.264Z,3328
2017-08-17T08:07:59.259Z,3612
2017-08-17T08:08:59.311Z,4196
2017-08-17T08:09:59.267Z,4796
2017-08-17T08:10:59.585Z,5312
2017-08-17T08:11:59.592Z,6024
2017-08-17T08:12:59.267Z,6524
2017-08-17T08:13:59.577Z,7152
2017-08-17T08:14:58.944Z,7780
2017-08-17T08:15:59.575Z,7944
2017-08-17T08:16:59.243Z,7848
2017-08-17T08:17:59.592Z,7940
2017-08-17T08:18:59.619Z,8180
2017-08-17T08:19:59.642Z,8616
2017-08-17T08:20:59.250Z,9112
2017-08-17T08:21:59.552Z,9412
2017-08-17T08:22:59.229Z,9800
2017-08-17T08:23:59.589Z,10768
2017-08-17T08:24:59.241Z,12400
2017-08-17T08:25:59.233Z,14404
2017-08-17T08:26:59.225Z,16060
2017-08-17T08:27:58.911Z,16640
2017-08-17T08:28:58.909Z,16800
2017-08-17T08:29:59.240Z,16864
2017-08-17T08:30:58.902Z,16640
2017-08-17T08:31:59.230Z,16040
2017-08-17T08:32:59.548Z,15328
2017-08-17T08:33:59.241Z,14328
2017-08-17T08:34:59.542Z,13832
2017-08-17T08:35:59.540Z,13772
2017-08-17T08:36:59.254Z,13312
2017-08-17T08:37:59.232Z,12836
2017-08-17T08:38:59.255Z,12180
2017-08-17T08:39:59.240Z,11468
2017-08-17T08:40:59.543Z,10820
2017-08-17T08:41:59.557Z,10720
2017-08-17T08:42:59.272Z,10624
2017-08-17T08:43:59.565Z,10672
2017-08-17T08:44:59.560Z,10484
2017-08-17T08:45:59.548Z,9952
2017-08-17T08:46:59.556Z,9436
2017-08-17T08:47:59.244Z,9084
2017-08-17T08:48:58.939Z,8540
2017-08-17T08:49:59.552Z,8088
2017-08-17T08:50:59.239Z,7832
2017-08-17T08:51:59.581Z,7580
2017-08-17T08:52:58.918Z,7604
2017-08-17T08:53:59.568Z,7628
2017-08-17T08:54:59.240Z,7436
2017-08-17T08:55:59.559Z,7348
2017-08-17T08:56:59.265Z,7292
2017-08-17T08:57:59.267Z,7276
2017-08-17T08:58:59.319Z,7220
2017-08-17T08:59:59.255Z,7152
2017-08-17T09:00:59.249Z,7080
2017-08-17T09:01:59.571Z,7064
2017-08-17T09:02:59.567Z,7084
2017-08-17T09:03:59.249Z,7088
2017-08-17T09:04:59.577Z,7120
2017-08-17T09:05:59.870Z,7184
2017-08-17T09:06:58.955Z,7400
2017-08-17T09:07:59.583Z,7428
2017-08-17T09:08:58.941Z,7488
2017-08-17T09:09:59.055Z,7540
2017-08-17T09:10:58.954Z,7640
2017-08-17T09:11:58.942Z,7584
2017-08-17T09:12:58.963Z,7508
2017-08-17T09:13:58.999Z,7344
2017-08-17T09:14:59.600Z,7352
2017-08-17T09:15:58.626Z,7292
2017-08-17T09:16:58.959Z,7288
2017-08-17T09:17:59.276Z,7104
2017-08-17T09:18:59.603Z,7172
2017-08-17T09:19:59.288Z,7076
2017-08-17T09:20:59.280Z,6912
2017-08-17T09:21:59.624Z,6784
2017-08-17T09:22:58.962Z,6712
2017-08-17T09:23:59.324Z,6628
2017-08-17T09:24:59.295Z,6620
2017-08-17T09:25:59.664Z,6500
2017-08-17T09:26:59.630Z,6424
2017-08-17T09:27:59.613Z,6340
2017-08-17T09:28:59.636Z,6296
2017-08-17T09:29:59.621Z,6288
2017-08-17T09:30:59.351Z,6276
2017-08-17T09:31:59.320Z,6232
2017-08-17T09:32:59.358Z,6208
2017-08-17T09:33:59.330Z,6260
2017-08-17T09:34:59.306Z,6216
2017-08-17T09:35:59.336Z,6248
2017-08-17T09:36:59.329Z,6248
2017-08-17T09:37:59.632Z,6260
2017-08-17T09:38:59.636Z,6204
2017-08-17T09:39:59.649Z,6212
2017-08-17T09:40:59.682Z,6256
2017-08-17T09:41:59.638Z,6288
2017-08-17T09:42:58.719Z,6256
2017-08-17T09:43:59.647Z,6196
2017-08-17T09:44:59.661Z,6144
2017-08-17T09:45:59.659Z,6092
2017-08-17T09:46:59.672Z,6000
2017-08-17T09:47:59.674Z,5908
2017-08-17T09:48:59.659Z,5900
2017-08-17T09:49:59.344Z,5892
2017-08-17T09:50:59.349Z,5908
2017-08-17T09:51:59.353Z,5880
2017-08-17T09:52:59.665Z,5868
2017-08-17T09:53:59.349Z,5852
2017-08-17T09:54:59.693Z,5860
2017-08-17T09:55:59.054Z,5856
2017-08-17T09:56:59.678Z,5856
2017-08-17T09:57:59.699Z,5840
2017-08-17T09:58:59.701Z,5856
2017-08-17T09:59:59.390Z,5884
2017-08-17T10:00:59.703Z,5908
2017-08-17T10:01:59.373Z,5908
2017-08-17T10:02:59.395Z,5928
2017-08-17T10:03:59.721Z,5932
2017-08-17T10:04:59.381Z,5972
2017-08-17T10:05:59.384Z,5988
2017-08-17T10:06:59.705Z,6008
2017-08-17T10:07:59.392Z,6124
2017-08-17T10:08:59.064Z,6224
2017-08-17T10:09:59.069Z,6312
2017-08-17T10:10:59.093Z,6336
2017-08-17T10:11:59.714Z,6396
2017-08-17T10:12:59.717Z,6404
2017-08-17T10:13:59.408Z,6452
2017-08-17T10:14:59.412Z,6504
2017-08-17T10:15:59.726Z,6556
2017-08-17T10:16:59.410Z,6564
2017-08-17T10:17:59.447Z,6560
2017-08-17T10:18:59.414Z,6568
2017-08-17T10:19:58.776Z,6548
2017-08-17T10:20:59.110Z,6536
2017-08-17T10:21:59.124Z,6528
2017-08-17T10:22:59.110Z,6488
2017-08-17T10:23:59.752Z,6396
2017-08-17T10:24:59.750Z,6312
2017-08-17T10:25:59.766Z,6228
2017-08-17T10:26:59.460Z,6172
2017-08-17T10:27:59.434Z,6068
2017-08-17T10:28:59.440Z,6048
2017-08-17T10:29:59.784Z,6008
2017-08-17T10:30:59.801Z,5956
2017-08-17T10:31:59.771Z,5924
2017-08-17T10:32:59.840Z,5864
2017-08-17T10:33:59.145Z,5828
2017-08-17T10:34:59.779Z,5780
2017-08-17T10:35:59.798Z,5692
2017-08-17T10:36:59.790Z,5640
2017-08-17T10:37:59.467Z,5608
2017-08-17T10:38:59.795Z,5568
2017-08-17T10:39:59.172Z,5556
2017-08-17T10:40:59.796Z,5528
2017-08-17T10:41:59.810Z,5516
2017-08-17T10:42:59.493Z,5504
2017-08-17T10:43:59.811Z,5428
2017-08-17T10:44:59.811Z,5440
2017-08-17T10:45:59.812Z,5500
2017-08-17T10:46:59.831Z,5568
2017-08-17T10:47:59.502Z,5624
2017-08-17T10:48:59.841Z,5676
2017-08-17T10:49:59.839Z,5732
2017-08-17T10:50:59.509Z,5696
2017-08-17T10:51:59.515Z,5696
2017-08-17T10:52:59.874Z,5696
2017-08-17T10:53:59.838Z,5744
2017-08-17T10:54:59.877Z,5844
2017-08-17T10:55:59.855Z,5812
2017-08-17T10:56:59.563Z,5924
2017-08-17T10:57:59.559Z,5948
2017-08-17T10:58:59.853Z,6024
2017-08-17T10:59:59.538Z,6092
2017-08-17T11:00:59.545Z,6112
2017-08-17T11:01:59.860Z,6080
2017-08-17T11:02:59.543Z,6072
2017-08-17T11:03:59.569Z,6132
2017-08-17T11:04:59.558Z,6204
2017-08-17T11:05:59.231Z,6188
2017-08-17T11:06:59.886Z,6340
2017-08-17T11:07:59.237Z,6416
2017-08-17T11:08:59.560Z,6452
2017-08-17T11:09:59.912Z,6492
2017-08-17T11:10:59.599Z,6576
2017-08-17T11:11:59.890Z,6628
2017-08-17T11:12:59.581Z,6472
2017-08-17T11:13:59.262Z,6856
2017-08-17T11:14:59.273Z,6856
2017-08-17T11:15:59.273Z,6676
2017-08-17T11:16:59.602Z,6516
2017-08-17T11:17:59.905Z,7024
2017-08-17T11:18:59.620Z,8624
2017-08-17T11:19:59.616Z,7220
2017-08-17T11:20:59.597Z,6968
2017-08-17T11:21:59.284Z,6392
2017-08-17T11:22:59.933Z,5908
2017-08-17T11:23:59.305Z,5920
2017-08-17T11:24:59.618Z,5508
2017-08-17T11:25:59.630Z,5776
2017-08-17T11:26:59.956Z,5908
2017-08-17T11:27:59.639Z,5492
2017-08-17T11:28:59.661Z,5636
2017-08-17T11:29:59.312Z,6796
2017-08-17T11:30:59.953Z,7260
2017-08-17T11:31:59.639Z,6632
2017-08-17T11:32:59.958Z,5708
2017-08-17T11:33:59.966Z,5856
2017-08-17T11:34:59.646Z,6488
2017-08-17T11:35:59.657Z,5816
2017-08-17T11:36:59.978Z,6028
2017-08-17T11:37:59.976Z,6344
2017-08-17T11:38:59.672Z,6240
2017-08-17T11:39:59.989Z,5444
2017-08-17T11:40:59.694Z,5412
2017-08-17T11:41:59.670Z,5976
2017-08-17T11:42:59.388Z,9108
2017-08-17T11:43:59.680Z,9660
2017-08-17T11:45:00.006Z,10532
2017-08-17T11:45:59.365Z,8352
2017-08-17T11:46:59.699Z,7620
2017-08-17T11:48:00.014Z,7132
2017-08-17T11:49:00.046Z,8260
2017-08-17T11:49:59.712Z,7840
2017-08-17T11:51:00.022Z,7648
2017-08-17T11:51:59.711Z,7848
2017-08-17T11:53:00.032Z,7800
2017-08-17T11:53:59.409Z,7948
2017-08-17T11:54:59.401Z,7720
2017-08-17T11:56:00.042Z,8060
2017-08-17T11:56:59.727Z,9220
2017-08-17T11:58:00.071Z,10736
2017-08-17T11:58:59.729Z,10532
2017-08-17T11:59:59.779Z,9264
2017-08-17T12:01:00.059Z,8688
2017-08-17T12:01:59.418Z,9276
2017-08-17T12:03:00.072Z,10232
2017-08-17T12:03:59.750Z,11808
2017-08-17T12:04:59.432Z,13460
2017-08-17T12:05:59.438Z,13400
2017-08-17T12:06:59.767Z,13912
2017-08-17T12:07:59.764Z,12552
2017-08-17T12:08:59.769Z,12140
2017-08-17T12:09:59.790Z,12512
2017-08-17T12:10:59.775Z,12636
2017-08-17T12:11:59.803Z,11392
2017-08-17T12:13:00.105Z,10952
2017-08-17T12:14:00.111Z,11620
2017-08-17T12:15:00.128Z,11648
2017-08-17T12:15:59.479Z,11308
2017-08-17T12:16:59.794Z,10904
2017-08-17T12:17:59.806Z,10708
2017-08-17T12:18:59.512Z,10500
2017-08-17T12:20:00.131Z,10952
2017-08-17T12:20:59.515Z,12608
2017-08-17T12:21:59.524Z,11740
2017-08-17T12:22:59.822Z,11692
2017-08-17T12:24:00.183Z,11632
2017-08-17T12:24:59.839Z,11328
2017-08-17T12:25:59.838Z,11232
2017-08-17T12:27:00.159Z,11404
2017-08-17T12:28:00.162Z,11276
2017-08-17T12:28:59.848Z,11344
2017-08-17T12:29:59.861Z,11176
2017-08-17T12:30:59.855Z,10560
2017-08-17T12:31:59.890Z,10188
2017-08-17T12:32:59.543Z,10004
2017-08-17T12:33:59.875Z,10208
2017-08-17T12:35:00.214Z,11872
2017-08-17T12:35:59.898Z,11040
2017-08-17T12:37:00.229Z,11084
2017-08-17T12:37:59.890Z,11720
2017-08-17T12:39:00.225Z,11892
2017-08-17T12:39:59.910Z,11752
2017-08-17T12:40:59.914Z,11456
2017-08-17T12:41:59.952Z,10716
2017-08-17T12:42:59.267Z,10204
2017-08-17T12:43:59.924Z,9988
2017-08-17T12:45:00.239Z,9784
2017-08-17T12:46:00.252Z,10224
2017-08-17T12:47:00.245Z,11304
2017-08-17T12:47:59.953Z,12528
2017-08-17T12:48:59.941Z,13568
2017-08-17T12:50:00.299Z,14168
2017-08-17T12:50:59.642Z,14528
2017-08-17T12:51:59.533Z,14896
2017-08-17T12:53:00.288Z,15192
2017-08-17T12:54:00.293Z,15212
2017-08-17T12:54:59.960Z,15156
2017-08-17T12:56:00.303Z,15272
2017-08-17T12:56:59.329Z,15296
2017-08-17T12:57:59.975Z,15112
2017-08-17T12:59:00.301Z,15116
2017-08-17T13:00:00.006Z,15100
2017-08-17T13:00:59.990Z,15124
2017-08-17T13:02:00.313Z,15048
2017-08-17T13:03:00.001Z,14872
2017-08-17T13:04:00.341Z,14640
2017-08-17T13:05:00.346Z,14156
2017-08-17T13:06:00.344Z,13508
2017-08-17T13:07:00.337Z,12708
2017-08-17T13:07:59.389Z,12088
2017-08-17T13:09:00.040Z,11456
2017-08-17T13:09:59.729Z,10792
2017-08-17T13:10:59.714Z,10176
2017-08-17T13:12:00.359Z,9416
2017-08-17T13:13:00.360Z,8356
2017-08-17T13:14:00.052Z,7856
2017-08-17T13:14:59.728Z,7464
2017-08-17T13:16:00.370Z,7016
2017-08-17T13:16:59.741Z,6696
2017-08-17T13:18:00.381Z,6424
2017-08-17T13:19:00.392Z,6336
2017-08-17T13:19:59.761Z,6036
2017-08-17T13:21:00.398Z,5480
2017-08-17T13:22:00.074Z,4992
2017-08-17T13:23:00.403Z,4560
2017-08-17T13:24:00.093Z,4248
2017-08-17T13:25:00.088Z,4160
2017-08-17T13:26:00.101Z,4028
2017-08-17T13:27:00.101Z,3832
2017-08-17T13:28:00.100Z,3792
2017-08-17T13:28:59.830Z,3740
2017-08-17T13:30:00.130Z,3716
2017-08-17T13:31:00.146Z,3764
2017-08-17T13:32:00.120Z,4232
2017-08-17T13:33:00.454Z,5044
2017-08-17T13:34:00.380Z,6224
2017-08-17T13:34:59.821Z,7820
2017-08-17T13:35:59.853Z,10044
2017-08-17T13:36:59.812Z,12284
2017-08-17T13:38:00.129Z,13980
2017-08-17T13:39:00.145Z,14904